Garrison, Maryland
Current Conditions -  °F | °C
As of 2:54 AM on Friday 19 Dec 2014 (Local Time) from KBWI Reporting Station
Overcast Overcast  
Wind Chill: 29°   Ceiling: 3300
Heat Index: 34°   Visibility: 10mi
Dew Point: 23°   Wind: 6mph
Humidity: 64%   Direction: 270°W
Pressure: 30.1"   Gusts: NA
Location:  39.41°N, 76.76°W
Report Text: KBWI 190754Z 27005KT 10SM BKN033 OVC100 01/M05 A3010 RMK AO2 SLP194 T00111050
Loading
Personal Weather Stations






























Interactive Weather Map New forecast layout! Learn more

10-Day Weather Forecast

Advertisements
Track Severe Weather on mobile